createdAt,value
2023-02-23T00:00:48.414Z,50.30
2023-02-23T00:04:59.664Z,52.73
2023-02-23T00:09:09.771Z,40.90
2023-02-23T00:13:18.425Z,50.77
2023-02-23T00:17:26.959Z,49.10
2023-02-23T00:21:35.753Z,47.03
2023-02-23T00:25:45.941Z,52.17
2023-02-23T00:29:54.665Z,58.57
2023-02-23T00:34:04.937Z,52.97
2023-02-23T00:38:13.957Z,62.07
2023-02-23T00:42:22.596Z,54.53
2023-02-23T00:46:31.922Z,40.20
2023-02-23T00:50:41.567Z,49.20
2023-02-23T00:54:51.406Z,49.23
2023-02-23T00:59:00.095Z,53.47
2023-02-23T01:03:08.816Z,50.43
2023-02-23T01:07:17.432Z,51.40
2023-02-23T01:11:30.801Z,47.60
2023-02-23T01:15:47.294Z,53.53
2023-02-23T01:19:55.910Z,52.03
2023-02-23T01:24:05.983Z,56.77
2023-02-23T01:28:14.601Z,50.33
2023-02-23T01:32:23.259Z,58.93
2023-02-23T01:36:37.281Z,46.67
2023-02-23T01:40:47.368Z,51.87
2023-02-23T01:45:19.813Z,39.27
2023-02-23T01:49:31.583Z,49.07
2023-02-23T01:53:43.338Z,46.00
2023-02-23T01:57:59.567Z,54.37
2023-02-23T02:02:08.150Z,46.43
2023-02-23T02:06:20.076Z,49.70
2023-02-23T02:10:43.998Z,38.57
2023-02-23T02:15:14.301Z,47.90
2023-02-23T02:19:46.894Z,46.13
2023-02-23T02:24:05.289Z,55.23
2023-02-23T02:28:40.942Z,41.00
2023-02-23T02:32:58.563Z,47.00
2023-02-23T02:37:40.274Z,48.53
2023-02-23T02:42:09.810Z,45.97
2023-02-23T02:46:24.055Z,40.97
2023-02-23T02:50:35.646Z,44.33
2023-02-23T02:54:47.785Z,46.23
2023-02-23T02:58:56.573Z,48.70
2023-02-23T03:03:23.452Z,50.08
2023-02-23T03:13:05.395Z,52.70
2023-02-23T03:18:00.002Z,52.23
2023-02-23T03:22:38.303Z,50.20
2023-02-23T03:27:10.300Z,41.73
2023-02-23T03:31:58.413Z,48.53
2023-02-23T03:36:30.945Z,41.07
2023-02-23T03:41:01.080Z,52.20
2023-02-23T03:45:48.232Z,40.30
2023-02-23T03:50:16.200Z,48.93
2023-02-23T03:55:06.585Z,53.23
2023-02-23T03:59:36.121Z,47.80
2023-02-23T04:04:15.154Z,43.27
2023-02-23T04:08:45.391Z,47.10
2023-02-23T04:13:17.082Z,43.50
2023-02-23T04:17:28.999Z,44.67
2023-02-23T04:21:37.626Z,49.87
2023-02-23T04:25:47.612Z,48.00
2023-02-23T04:29:56.290Z,41.20
2023-02-23T04:34:04.937Z,46.83
2023-02-23T04:38:32.899Z,46.20
2023-02-23T04:43:00.878Z,46.43
2023-02-23T04:47:09.626Z,49.77
2023-02-23T04:51:18.456Z,45.57
2023-02-23T04:55:28.099Z,50.60
2023-02-23T04:59:36.943Z,40.83
2023-02-23T05:03:45.583Z,49.23
2023-02-23T05:07:55.108Z,46.90
2023-02-23T05:12:03.949Z,38.43
2023-02-23T05:16:12.650Z,50.53
2023-02-23T05:20:21.408Z,48.17
2023-02-23T05:24:31.136Z,62.70
2023-02-23T05:28:41.881Z,53.77
2023-02-23T05:32:51.515Z,53.50
2023-02-23T05:37:00.146Z,55.20
2023-02-23T05:41:28.043Z,53.13
2023-02-23T05:45:38.145Z,55.40
2023-02-23T05:49:46.949Z,54.30
2023-02-23T05:53:55.805Z,54.37
2023-02-23T05:58:23.712Z,63.77
2023-02-23T06:02:32.558Z,47.67
2023-02-23T06:06:41.482Z,65.83
2023-02-23T06:10:50.700Z,75.73
2023-02-23T06:15:18.807Z,57.00
2023-02-23T06:19:29.321Z,65.33
2023-02-23T06:23:38.121Z,61.43
2023-02-23T06:28:07.552Z,63.93
2023-02-23T06:32:35.604Z,61.27
2023-02-23T06:36:44.241Z,54.80
2023-02-23T06:40:54.725Z,55.67
2023-02-23T06:45:03.948Z,60.43
2023-02-23T06:49:16.176Z,53.77
2023-02-23T06:53:25.118Z,57.53
2023-02-23T06:57:34.244Z,58.93
2023-02-23T07:01:44.867Z,54.97
2023-02-23T07:05:54.475Z,62.97
2023-02-23T07:10:05.043Z,56.80
2023-02-23T07:14:21.484Z,60.23
2023-02-23T07:18:24.156Z,58.10
2023-02-23T07:22:34.208Z,50.63
2023-02-23T07:26:44.531Z,61.13
2023-02-23T07:30:54.734Z,56.60
2023-02-23T07:35:03.828Z,59.73
2023-02-23T07:39:12.878Z,60.13
2023-02-23T07:43:22.637Z,60.30
2023-02-23T07:47:31.360Z,44.47
2023-02-23T07:51:40.965Z,59.83
2023-02-23T07:55:52.661Z,53.93
2023-02-23T08:00:01.925Z,58.87
2023-02-23T08:04:10.877Z,58.03
2023-02-23T08:08:19.444Z,50.77
2023-02-23T08:12:28.253Z,52.23
2023-02-23T08:16:36.880Z,46.67
2023-02-23T08:20:45.458Z,62.67
2023-02-23T08:24:54.278Z,46.17
2023-02-23T08:29:02.919Z,58.30
2023-02-23T08:33:11.461Z,43.93
2023-02-23T08:37:20.081Z,53.33
2023-02-23T08:41:29.012Z,48.20
2023-02-23T08:45:39.500Z,53.27
2023-02-23T08:49:48.306Z,39.03
2023-02-23T08:53:57.357Z,37.53
2023-02-23T08:58:07.676Z,42.10
2023-02-23T09:02:16.701Z,37.50
2023-02-23T09:06:26.367Z,39.67
2023-02-23T09:10:35.662Z,41.20
2023-02-23T09:14:44.227Z,46.37
2023-02-23T09:18:52.871Z,48.10
2023-02-23T09:23:01.552Z,48.00
2023-02-23T09:27:11.661Z,45.47
2023-02-23T09:31:23.926Z,46.13
2023-02-23T09:35:34.493Z,41.70
2023-02-23T09:39:43.640Z,39.80
2023-02-23T09:43:58.299Z,45.20
2023-02-23T09:48:27.204Z,39.80
2023-02-23T09:52:39.391Z,37.97
2023-02-23T09:56:51.196Z,40.57
2023-02-23T10:01:20.067Z,37.87
2023-02-23T10:05:33.051Z,40.77
2023-02-23T10:10:01.900Z,32.20
2023-02-23T10:14:37.829Z,34.20
2023-02-23T10:18:50.210Z,36.33
2023-02-23T10:23:19.675Z,33.23
2023-02-23T10:27:49.592Z,34.30
2023-02-23T10:32:01.250Z,29.70
2023-02-23T10:36:21.603Z,32.03
2023-02-23T10:40:32.974Z,27.30
2023-02-23T10:44:44.789Z,26.63
2023-02-23T10:48:57.051Z,33.77
2023-02-23T10:53:20.537Z,34.37
2023-02-23T10:57:32.401Z,32.77
2023-02-23T11:02:01.016Z,27.87
2023-02-23T11:05:56.058Z,33.33
2023-02-23T11:10:24.258Z,29.10
2023-02-23T11:14:33.774Z,28.33
2023-02-23T11:18:45.134Z,31.57
2023-02-23T11:22:55.718Z,31.53
2023-02-23T11:27:06.632Z,31.03
2023-02-23T11:31:22.069Z,26.70
2023-02-23T11:35:32.137Z,29.63
2023-02-23T11:39:55.586Z,17.17
2023-02-23T11:44:06.203Z,25.77
2023-02-23T11:48:20.876Z,26.30
2023-02-23T11:52:31.216Z,21.83
2023-02-23T11:56:39.779Z,24.30
2023-02-23T12:01:00.350Z,28.93
2023-02-23T12:05:12.468Z,24.23
2023-02-23T12:09:29.854Z,20.77
2023-02-23T12:13:51.026Z,19.67
2023-02-23T12:18:06.738Z,22.03
2023-02-23T12:22:18.625Z,20.97
2023-02-23T12:26:28.366Z,26.00
2023-02-23T12:31:00.970Z,22.23
2023-02-23T12:35:49.725Z,20.57
2023-02-23T12:40:01.542Z,29.27
2023-02-23T12:44:18.839Z,20.70
2023-02-23T12:48:48.797Z,21.33
2023-02-23T12:53:01.563Z,25.63
2023-02-23T12:57:19.401Z,22.17
2023-02-23T13:01:46.020Z,19.10
2023-02-23T13:06:03.434Z,29.57
2023-02-23T13:10:51.112Z,18.80
2023-02-23T13:15:24.846Z,22.67
2023-02-23T13:19:43.668Z,21.63
2023-02-23T13:24:19.670Z,24.27
2023-02-23T13:28:39.958Z,21.50
2023-02-23T13:32:49.484Z,26.00
2023-02-23T13:37:01.618Z,27.93
2023-02-23T13:41:35.848Z,21.37
2023-02-23T13:45:59.738Z,20.00
2023-02-23T13:50:17.280Z,27.10
2023-02-23T13:54:33.990Z,25.27
2023-02-23T13:58:48.250Z,24.53
2023-02-23T14:02:58.389Z,22.10
2023-02-23T14:07:16.668Z,29.10
2023-02-23T14:11:44.038Z,21.93
2023-02-23T14:16:11.983Z,31.63
2023-02-23T14:20:30.050Z,26.77
2023-02-23T14:24:37.190Z,26.43
2023-02-23T14:28:51.534Z,29.30
2023-02-23T14:33:13.203Z,27.70
2023-02-23T14:37:22.004Z,32.57
2023-02-23T14:41:33.561Z,32.37
2023-02-23T14:45:42.832Z,31.37
2023-02-23T14:50:04.392Z,22.63
2023-02-23T14:54:34.035Z,31.73
2023-02-23T14:58:42.920Z,20.47
2023-02-23T15:03:09.222Z,23.33
2023-02-23T15:07:22.451Z,27.27
2023-02-23T15:11:36.194Z,21.07
2023-02-23T15:15:47.321Z,25.83
2023-02-23T15:24:12.346Z,21.43
2023-02-23T15:28:29.709Z,20.83
2023-02-23T15:32:39.800Z,25.40
2023-02-23T15:37:08.157Z,19.27
2023-02-23T15:41:23.049Z,19.67
2023-02-23T15:45:42.702Z,22.30
2023-02-23T15:49:52.882Z,25.10
2023-02-23T15:54:06.332Z,22.87
2023-02-23T15:58:23.824Z,21.17
2023-02-23T16:02:32.594Z,17.77
2023-02-23T16:06:53.517Z,13.67
2023-02-23T16:11:05.326Z,14.13
2023-02-23T16:15:31.848Z,15.30
2023-02-23T16:19:41.316Z,20.20
2023-02-23T16:23:53.311Z,15.40
2023-02-23T16:28:10.225Z,18.00
2023-02-23T16:32:23.026Z,16.93
2023-02-23T16:36:39.964Z,13.00
2023-02-23T16:40:48.844Z,16.20
2023-02-23T16:44:58.392Z,19.07
2023-02-23T16:49:08.768Z,16.27
2023-02-23T16:53:17.482Z,16.67
2023-02-23T16:57:31.914Z,24.97
2023-02-23T17:01:40.476Z,15.30
2023-02-23T17:05:49.638Z,20.20
2023-02-23T17:09:58.934Z,14.97
2023-02-23T17:14:29.403Z,13.27
2023-02-23T17:18:42.787Z,22.80
2023-02-23T17:22:50.804Z,23.67
2023-02-23T17:27:18.751Z,15.30
2023-02-23T17:31:28.256Z,19.77
2023-02-23T17:35:37.497Z,17.80
2023-02-23T17:39:47.714Z,17.50
2023-02-23T17:43:56.260Z,17.00
2023-02-23T17:48:04.893Z,14.70
2023-02-23T17:52:13.457Z,18.83
2023-02-23T17:56:23.658Z,19.63
2023-02-23T18:00:34.006Z,19.97
2023-02-23T18:05:02.088Z,16.57
2023-02-23T18:09:23.154Z,19.03
2023-02-23T18:13:33.721Z,18.77
2023-02-23T18:17:42.276Z,13.83
2023-02-23T18:21:51.103Z,15.83
2023-02-23T18:26:08.211Z,9.80
2023-02-23T18:30:17.047Z,13.17
2023-02-23T18:34:27.480Z,15.67
2023-02-23T18:38:36.107Z,14.47
2023-02-23T18:42:44.736Z,16.50
2023-02-23T18:46:54.977Z,17.10
2023-02-23T18:51:06.645Z,19.60
2023-02-23T18:55:16.053Z,21.20
2023-02-23T18:59:24.679Z,25.07
2023-02-23T19:03:33.205Z,19.50
2023-02-23T19:07:42.512Z,14.70
2023-02-23T19:11:51.160Z,14.90
2023-02-23T19:16:02.799Z,10.07
2023-02-23T19:20:14.309Z,16.40
2023-02-23T19:24:22.865Z,17.40
2023-02-23T19:28:31.435Z,13.73
2023-02-23T19:32:40.359Z,26.90
2023-02-23T19:36:49.202Z,20.80
2023-02-23T19:40:58.141Z,16.93
2023-02-23T19:45:07.614Z,18.00
2023-02-23T19:49:17.321Z,22.83
2023-02-23T19:53:27.606Z,23.80
2023-02-23T19:57:36.130Z,17.90
2023-02-23T20:01:45.792Z,15.50
2023-02-23T20:06:06.758Z,12.23
2023-02-23T20:10:16.404Z,18.80
2023-02-23T20:14:25.095Z,7.10
2023-02-23T20:18:35.697Z,15.13
2023-02-23T20:22:44.908Z,7.30
2023-02-23T20:26:55.096Z,10.10
2023-02-23T20:31:04.656Z,12.57
2023-02-23T20:35:16.417Z,15.90
2023-02-23T20:39:26.945Z,10.43
2023-02-23T20:43:36.253Z,5.63
2023-02-23T20:47:50.508Z,11.73
2023-02-23T20:51:59.123Z,9.97
2023-02-23T20:56:09.882Z,6.23
2023-02-23T21:00:26.474Z,13.13
2023-02-23T21:04:38.368Z,13.67
2023-02-23T21:08:49.478Z,4.30
2023-02-23T21:12:58.371Z,9.10
2023-02-23T21:17:07.094Z,4.93
2023-02-23T21:21:16.529Z,5.33
2023-02-23T21:25:27.616Z,9.40
2023-02-23T21:29:36.450Z,7.30
2023-02-23T21:33:45.936Z,9.83
2023-02-23T21:37:54.630Z,13.57
2023-02-23T21:42:03.273Z,10.10
2023-02-23T21:46:14.502Z,5.10
2023-02-23T21:50:23.071Z,13.43
2023-02-23T21:54:31.580Z,11.53
2023-02-23T21:58:42.783Z,9.73
2023-02-23T22:02:52.089Z,11.37
2023-02-23T22:07:00.760Z,10.03
2023-02-23T22:11:10.842Z,7.00
2023-02-23T22:15:19.552Z,15.63
2023-02-23T22:19:28.187Z,18.33
2023-02-23T22:23:37.014Z,5.57
2023-02-23T22:27:45.642Z,9.23
2023-02-23T22:31:54.447Z,17.20
2023-02-23T22:36:06.662Z,5.70
2023-02-23T22:40:17.225Z,10.93
2023-02-23T22:44:25.867Z,19.53
2023-02-23T22:48:35.442Z,11.03
2023-02-23T22:52:43.932Z,5.33
2023-02-23T22:56:52.498Z,10.30
2023-02-23T23:01:04.848Z,11.33
2023-02-23T23:05:13.776Z,14.07
2023-02-23T23:09:22.472Z,24.17
2023-02-23T23:13:31.990Z,11.50
2023-02-23T23:17:42.156Z,14.40
2023-02-23T23:21:54.389Z,13.00
2023-02-23T23:26:23.425Z,6.30
2023-02-23T23:30:33.669Z,8.00
2023-02-23T23:34:42.200Z,29.03
2023-02-23T23:38:51.855Z,12.40
2023-02-23T23:43:01.889Z,9.07
2023-02-23T23:47:11.364Z,15.83
2023-02-23T23:51:20.754Z,5.63
2023-02-23T23:55:31.590Z,9.23
2023-02-23T23:59:41.904Z,3.97
